KLNL

Kings Land O' Lakes Airport

Land O' Lakes, Wisconsin, USA
METAR KLNL 212315Z AUTO 32004KT 10SM CLR 16/10 A3009 RMK AO2 T01570099
Observed Flight Rules
Aug-21 @ 23:15 UTC (31 minutes ago) Visual Flight Rules
Wind Visibility Clouds
320° at 4 knots 10 miles
  • Clear skies
Temperatures Readings
Current 16°C / 61°F
Dewpoint 10°C / 50°F
Humidity 68%
Altimeter 30.09" Hg
Pressure 1019 hPa
Elevation 520
METAR KLNL 212315Z AUTO 32004KT 10SM CLR 16/10 A3009 RMK AO2 T01570099
Observed Flight Rules
Aug-21 @ 23:15 UTC
(31 minutes ago)
VFR
Wind Visibility
320° at 4 knots 10 miles
Clouds
  • Clear skies
Temperature Dewpoint
16°C / 61°F 10°C / 50°F
Humidity Altimeter Pressure
68% 30.09" Hg 1019 hPa